Aeroporto :
LOGIN :

Iscrizione | Disclaimer

   EN    FR    IT 

 










Sommario :    VFR   VFR Marginale   IFR   IFR Intensivo   IFR Molto Intensivo
Visibilità : 
Base nubi : 
>= 8 km
>= 3000ft
5 / 8 km
1000 / 3000 ft
1500m / 5 km
500 / 1000 ft
800 / 1500m
200 / 500 ft
< 800m
< 200 ft
Simboli :   Temporali  Nebbia  Neve Forte  Precipitazioni Forti  Vento > 20 kt
SIGMETs :   Varie  Temporali  Ghiacco  Turbolenza  Onda orograficha  Ceneri Vulcaniche






- Altitudine del aeroporto : 468 ft
- Codice IATA : GRO


LEGE - Girona Costa Brava

ULTIMO METAR :
  • 191130Z 21015KT 190V250 9999 FEW040 SCT060 25/15 Q1008

METARs OBSOLETI :
  • 191100Z 21013KT 190V270 9999 SCT060 26/15 Q1008
  • 191030Z 20015KT 9999 FEW030 26/15 Q1009
  • 191000Z 21016KT 9999 FEW030 24/15 Q1009
  • 190930Z 21013KT 180V250 9999 FEW030 24/16 Q1009
  • 190900Z 21012KT 9999 FEW030 22/16 Q1009

TAF TAF LEGE
Valido dal 19 a 12 ore il 20 a 12 ore UTC


191100Z 1912/2012 18012KT 9999 SCT040 TX27/1913Z TN11/2006Z
TEMPO 1920/2006 VRB04KT
TEMPO 1922/2007 3000 RA BR
PROB30
TEMPO 2002/2012 4000 TSRA FEW030CB BKN040



MetMap, La meteo Aeronautica in un colpo d'occhio ! - Copyright ORBIFLY Dicembre 2007 - Disclaimer

ORBIFLY MET'MAP TEAM :

Programmazione e sviluppo : Alexandra Zaïnal
Concezione e sviluppo : Baudouin d'Aumeries
Co-Programmazione e sviluppo : Marc-Olivier Méhu
Supporto tecnico e logistico : Manuel Goepfert
Aiuto per la traduzione : Arnaldo La Scala

Contatto : metmap@orbifly.com




FONTI E CREDITI :

   NOAA